createdAt,value
2023-02-13T00:01:25.619Z,6.17
2023-02-13T00:03:53.916Z,7.70
2023-02-13T00:06:23.186Z,5.80
2023-02-13T00:08:51.368Z,6.10
2023-02-13T00:11:20.614Z,6.23
2023-02-13T00:13:50.336Z,5.73
2023-02-13T00:16:18.848Z,5.63
2023-02-13T00:18:47.242Z,5.37
2023-02-13T00:21:16.020Z,6.50
2023-02-13T00:23:44.343Z,5.73
2023-02-13T00:26:15.453Z,6.50
2023-02-13T00:28:43.962Z,5.93
2023-02-13T00:31:15.729Z,5.70
2023-02-13T00:33:44.295Z,5.63
2023-02-13T00:36:15.211Z,5.53
2023-02-13T00:38:44.573Z,5.80
2023-02-13T00:41:14.253Z,6.67
2023-02-13T00:43:42.802Z,5.90
2023-02-13T00:46:13.119Z,6.13
2023-02-13T00:48:41.702Z,5.70
2023-02-13T00:51:10.791Z,6.40
2023-02-13T00:53:39.956Z,5.97
2023-02-13T00:56:09.081Z,5.97
2023-02-13T00:58:37.695Z,5.70
2023-02-13T01:01:06.585Z,6.23
2023-02-13T01:03:36.338Z,5.83
2023-02-13T01:06:05.236Z,6.23
2023-02-13T01:08:33.606Z,5.10
2023-02-13T01:11:02.290Z,5.73
2023-02-13T01:13:30.632Z,6.30
2023-02-13T01:15:59.322Z,5.77
2023-02-13T01:18:27.695Z,6.43
2023-02-13T01:21:02.225Z,5.33
2023-02-13T01:23:34.833Z,6.50
2023-02-13T01:26:05.886Z,5.70
2023-02-13T01:28:34.865Z,6.23
2023-02-13T01:31:03.774Z,5.87
2023-02-13T01:33:32.054Z,6.17
2023-02-13T01:36:07.411Z,5.80
2023-02-13T01:38:35.745Z,5.37
2023-02-13T01:41:04.355Z,5.53
2023-02-13T01:43:46.992Z,6.27
2023-02-13T01:46:18.489Z,4.87
2023-02-13T01:48:48.298Z,5.97
2023-02-13T01:51:21.491Z,5.53
2023-02-13T01:53:54.527Z,4.73
2023-02-13T01:56:26.707Z,5.07
2023-02-13T01:58:58.559Z,5.43
2023-02-13T02:01:28.126Z,4.77
2023-02-13T02:04:00.113Z,4.97
2023-02-13T02:06:33.247Z,4.33
2023-02-13T02:09:06.715Z,4.37
2023-02-13T02:11:40.800Z,3.67
2023-02-13T02:14:09.527Z,3.20
2023-02-13T02:16:38.117Z,4.20
2023-02-13T02:19:10.089Z,4.13
2023-02-13T02:22:17.376Z,2.90
2023-02-13T02:25:12.262Z,3.30
2023-02-13T02:28:15.216Z,3.30
2023-02-13T02:31:22.246Z,3.07
2023-02-13T02:34:10.200Z,2.60
2023-02-13T02:36:51.513Z,3.47
2023-02-13T02:39:31.343Z,2.47
2023-02-13T02:42:10.009Z,2.53
2023-02-13T02:44:44.535Z,2.60
2023-02-13T02:47:40.878Z,2.40
2023-02-13T02:50:24.928Z,2.53
2023-02-13T02:53:05.680Z,2.27
2023-02-13T02:55:40.562Z,2.60
2023-02-13T02:58:32.508Z,2.30
2023-02-13T03:01:20.496Z,2.33
2023-02-13T03:04:07.663Z,2.57
2023-02-13T03:06:41.747Z,2.37
2023-02-13T03:09:32.859Z,2.00
2023-02-13T03:12:20.443Z,2.37
2023-02-13T03:14:48.834Z,2.07
2023-02-13T03:17:37.324Z,2.10
2023-02-13T03:20:35.503Z,2.10
2023-02-13T03:23:18.088Z,1.83
2023-02-13T03:26:13.121Z,1.93
2023-02-13T03:29:05.814Z,1.90
2023-02-13T03:31:39.830Z,1.83
2023-02-13T03:34:12.176Z,2.13
2023-02-13T03:37:05.418Z,2.23
2023-02-13T03:39:46.950Z,1.93
2023-02-13T03:42:23.005Z,2.00
2023-02-13T03:45:10.482Z,1.73
2023-02-13T03:47:39.659Z,2.00
2023-02-13T03:50:10.524Z,2.00
2023-02-13T03:52:46.345Z,1.83
2023-02-13T03:55:36.774Z,2.20
2023-02-13T03:58:26.770Z,2.37
2023-02-13T04:01:00.215Z,2.67
2023-02-13T04:03:33.208Z,2.20
2023-02-13T04:06:05.710Z,1.90
2023-02-13T04:08:34.041Z,2.17
2023-02-13T04:11:10.450Z,2.13
2023-02-13T04:13:46.618Z,2.07
2023-02-13T04:16:19.501Z,2.20
2023-02-13T04:18:49.516Z,2.70
2023-02-13T04:21:17.999Z,2.47
2023-02-13T04:23:46.225Z,2.90
2023-02-13T04:26:19.666Z,2.83
2023-02-13T04:28:48.253Z,2.87
2023-02-13T04:31:16.998Z,2.60
2023-02-13T04:33:45.373Z,2.90
2023-02-13T04:36:13.858Z,2.33
2023-02-13T04:38:42.050Z,3.43
2023-02-13T04:41:10.698Z,3.27
2023-02-13T04:43:40.213Z,2.83
2023-02-13T04:46:08.832Z,2.97
2023-02-13T04:48:38.784Z,2.93
2023-02-13T04:51:07.716Z,3.00
2023-02-13T04:53:36.113Z,2.77
2023-02-13T04:56:04.951Z,2.77
2023-02-13T04:58:33.440Z,2.67
2023-02-13T05:01:03.528Z,3.20
2023-02-13T05:03:47.631Z,2.80
2023-02-13T05:06:16.580Z,3.40
2023-02-13T05:08:44.942Z,2.50
2023-02-13T05:11:13.510Z,2.73
2023-02-13T05:13:41.751Z,3.77
2023-02-13T05:16:11.751Z,3.43
2023-02-13T05:18:40.361Z,2.83
2023-02-13T05:21:26.469Z,4.00
2023-02-13T05:23:54.938Z,3.07
2023-02-13T05:26:23.510Z,2.70
2023-02-13T05:29:09.091Z,3.03
2023-02-13T05:31:39.731Z,2.97
2023-02-13T05:34:08.304Z,3.07
2023-02-13T05:36:36.898Z,3.73
2023-02-13T05:39:05.760Z,3.40
2023-02-13T05:41:34.457Z,3.57
2023-02-13T05:44:02.864Z,3.50
2023-02-13T05:46:31.313Z,4.20
2023-02-13T05:49:02.680Z,3.77
2023-02-13T05:51:32.738Z,3.77
2023-02-13T05:54:01.118Z,3.33
2023-02-13T05:56:30.005Z,3.30
2023-02-13T05:58:58.793Z,3.37
2023-02-13T06:01:27.999Z,3.50
2023-02-13T06:03:58.772Z,4.03
2023-02-13T06:06:29.430Z,3.00
2023-02-13T06:08:57.662Z,2.73
2023-02-13T06:11:26.263Z,3.43
2023-02-13T06:13:55.795Z,4.00
2023-02-13T06:16:24.590Z,2.93
2023-02-13T06:18:53.002Z,3.60
2023-02-13T06:21:22.643Z,3.13
2023-02-13T06:23:52.294Z,4.07
2023-02-13T06:26:20.925Z,3.53
2023-02-13T06:28:49.476Z,2.90
2023-02-13T06:31:18.074Z,3.43
2023-02-13T06:33:46.296Z,4.10
2023-02-13T06:36:14.869Z,3.60
2023-02-13T06:38:43.095Z,3.53
2023-02-13T06:41:12.919Z,3.90
2023-02-13T06:43:41.111Z,3.87
2023-02-13T06:46:10.444Z,3.83
2023-02-13T06:48:38.999Z,3.93
2023-02-13T06:51:07.602Z,3.57
2023-02-13T06:53:35.925Z,3.50
2023-02-13T06:56:06.427Z,3.70
2023-02-13T06:58:36.136Z,4.00
2023-02-13T07:01:05.141Z,4.10
2023-02-13T07:03:33.401Z,3.33
2023-02-13T07:06:01.996Z,4.03
2023-02-13T07:08:31.434Z,4.33
2023-02-13T07:10:59.942Z,3.80
2023-02-13T07:13:28.191Z,4.33
2023-02-13T07:16:02.432Z,4.53
2023-02-13T07:18:30.690Z,3.17
2023-02-13T07:20:59.899Z,3.53
2023-02-13T07:23:28.223Z,3.97
2023-02-13T07:25:59.687Z,4.27
2023-02-13T07:28:28.540Z,4.00
2023-02-13T07:30:58.824Z,3.57
2023-02-13T07:33:27.487Z,2.90
2023-02-13T07:35:55.972Z,4.03
2023-02-13T07:38:24.200Z,4.10
2023-02-13T07:40:52.780Z,3.43
2023-02-13T07:43:21.138Z,3.37
2023-02-13T07:45:49.743Z,3.77
2023-02-13T07:48:19.459Z,3.63
2023-02-13T07:50:47.917Z,3.63
2023-02-13T07:53:16.327Z,3.33
2023-02-13T07:55:44.834Z,3.60
2023-02-13T07:58:13.325Z,3.07
2023-02-13T08:00:41.802Z,3.60
2023-02-13T08:03:11.488Z,3.20
2023-02-13T08:05:41.881Z,2.93
2023-02-13T08:08:10.180Z,2.43
2023-02-13T08:10:56.381Z,3.50
2023-02-13T08:13:24.577Z,2.83
2023-02-13T08:15:53.061Z,3.10
2023-02-13T08:18:21.263Z,2.67
2023-02-13T08:20:51.309Z,2.60
2023-02-13T08:23:19.867Z,3.03
2023-02-13T08:25:49.930Z,1.77
2023-02-13T08:28:18.287Z,2.40
2023-02-13T08:30:46.933Z,2.00
2023-02-13T08:33:15.249Z,3.33
2023-02-13T08:35:44.011Z,2.90
2023-02-13T08:38:13.621Z,2.40
2023-02-13T08:40:42.288Z,2.87
2023-02-13T08:43:10.725Z,2.70
2023-02-13T08:45:39.229Z,2.33
2023-02-13T08:48:07.703Z,2.67
2023-02-13T08:50:37.437Z,2.63
2023-02-13T08:53:06.131Z,2.33
2023-02-13T08:55:36.121Z,2.87
2023-02-13T08:58:05.689Z,2.53
2023-02-13T09:00:34.349Z,2.27
2023-02-13T09:03:03.464Z,2.03
2023-02-13T09:05:33.071Z,1.50
2023-02-13T09:08:02.931Z,1.93
2023-02-13T09:10:32.538Z,2.03
2023-02-13T09:13:02.361Z,2.17
2023-02-13T09:15:31.030Z,2.43
2023-02-13T09:17:59.368Z,1.90
2023-02-13T09:20:28.314Z,2.50
2023-02-13T09:22:57.913Z,2.10
2023-02-13T09:25:27.014Z,2.30
2023-02-13T09:27:55.266Z,2.73
2023-02-13T09:30:25.556Z,2.03
2023-02-13T09:32:55.003Z,1.90
2023-02-13T09:35:24.503Z,2.00
2023-02-13T09:37:52.766Z,2.30
2023-02-13T09:40:27.427Z,2.50
2023-02-13T09:43:05.752Z,1.90
2023-02-13T09:45:36.489Z,2.33
2023-02-13T09:48:06.618Z,2.23
2023-02-13T09:50:36.529Z,2.63
2023-02-13T09:53:06.190Z,2.20
2023-02-13T09:55:42.446Z,2.53
2023-02-13T09:58:20.747Z,2.03
2023-02-13T10:00:54.832Z,1.90
2023-02-13T10:03:29.796Z,3.03
2023-02-13T10:06:06.487Z,2.73
2023-02-13T10:08:56.464Z,2.03
2023-02-13T10:11:43.854Z,2.43
2023-02-13T10:14:17.892Z,2.47
2023-02-13T10:16:52.284Z,2.47
2023-02-13T10:19:32.462Z,2.03
2023-02-13T10:22:06.274Z,2.40
2023-02-13T10:24:38.774Z,2.33
2023-02-13T10:27:22.896Z,2.07
2023-02-13T10:30:06.774Z,1.90
2023-02-13T10:32:47.067Z,2.60
2023-02-13T10:35:23.493Z,1.90
2023-02-13T10:37:56.477Z,3.07
2023-02-13T10:40:32.355Z,2.20
2023-02-13T10:43:09.689Z,2.30
2023-02-13T10:45:56.410Z,2.27
2023-02-13T10:48:58.178Z,2.50
2023-02-13T10:51:35.806Z,2.00
2023-02-13T10:54:24.891Z,2.90
2023-02-13T10:57:02.512Z,3.20
2023-02-13T10:59:51.181Z,2.17
2023-02-13T11:02:24.458Z,2.40
2023-02-13T11:05:00.345Z,2.47
2023-02-13T11:07:30.068Z,3.37
2023-02-13T11:10:04.384Z,2.80
2023-02-13T11:12:34.423Z,2.33
2023-02-13T11:15:05.320Z,3.13
2023-02-13T11:17:38.061Z,3.00
2023-02-13T11:20:23.961Z,2.57
2023-02-13T11:22:52.172Z,3.00
2023-02-13T11:25:23.822Z,2.37
2023-02-13T11:27:56.160Z,2.20
2023-02-13T11:30:36.482Z,2.40
2023-02-13T11:33:07.806Z,1.97
2023-02-13T11:35:38.737Z,2.00
2023-02-13T11:38:15.425Z,2.93
2023-02-13T11:40:47.404Z,2.45
2023-02-13T11:43:20.658Z,1.60
2023-02-13T11:46:01.418Z,2.50
2023-02-13T11:48:29.965Z,2.30
2023-02-13T11:51:00.706Z,2.30
2023-02-13T11:53:31.581Z,2.20
2023-02-13T11:56:07.155Z,2.50
2023-02-13T11:58:36.302Z,2.43
2023-02-13T12:01:25.228Z,1.80
2023-02-13T12:04:04.780Z,2.37
2023-02-13T12:06:39.860Z,2.50
2023-02-13T12:09:15.505Z,3.93
2023-02-13T12:11:48.414Z,3.17
2023-02-13T12:14:21.317Z,2.93
2023-02-13T12:16:52.388Z,2.43
2023-02-13T12:19:27.089Z,3.30
2023-02-13T12:22:21.722Z,2.37
2023-02-13T12:25:09.422Z,1.90
2023-02-13T12:27:48.017Z,2.03
2023-02-13T12:31:02.157Z,2.20
2023-02-13T12:33:59.133Z,1.95
2023-02-13T12:36:37.242Z,1.80
2023-02-13T12:39:18.839Z,1.80
2023-02-13T12:42:00.148Z,2.10
2023-02-13T12:44:50.605Z,2.10
2023-02-13T12:47:22.957Z,2.07
2023-02-13T12:50:13.315Z,1.63
2023-02-13T12:52:55.696Z,2.27
2023-02-13T12:55:37.021Z,2.03
2023-02-13T12:58:20.026Z,2.57
2023-02-13T13:01:02.164Z,2.10
2023-02-13T13:03:39.001Z,2.13
2023-02-13T13:06:22.684Z,2.60
2023-02-13T13:09:09.496Z,2.70
2023-02-13T13:12:06.316Z,2.03
2023-02-13T13:14:41.037Z,1.93
2023-02-13T13:17:18.501Z,2.43
2023-02-13T13:19:52.622Z,2.57
2023-02-13T13:22:28.094Z,2.43
2023-02-13T13:25:05.622Z,2.53
2023-02-13T13:27:40.633Z,3.13
2023-02-13T13:30:19.686Z,2.50
2023-02-13T13:32:53.158Z,3.37
2023-02-13T13:35:22.640Z,3.57
2023-02-13T13:38:02.725Z,5.33
2023-02-13T13:40:41.113Z,4.27
2023-02-13T13:43:21.499Z,3.53
2023-02-13T13:46:01.824Z,3.07
2023-02-13T13:48:51.793Z,3.40
2023-02-13T13:51:20.568Z,3.80
2023-02-13T13:54:34.681Z,3.17
2023-02-13T13:57:07.970Z,2.73
2023-02-13T13:59:58.097Z,3.10
2023-02-13T14:02:51.130Z,2.77
2023-02-13T14:05:29.742Z,2.77
2023-02-13T14:08:00.237Z,2.53
2023-02-13T14:11:08.709Z,2.93
2023-02-13T14:13:39.652Z,3.37
2023-02-13T14:16:12.811Z,3.23
2023-02-13T14:18:47.817Z,3.17
2023-02-13T14:21:25.713Z,2.90
2023-02-13T14:24:00.775Z,2.60
2023-02-13T14:26:40.654Z,2.97
2023-02-13T14:29:34.351Z,2.10
2023-02-13T14:32:16.980Z,2.53
2023-02-13T14:34:54.503Z,2.90
2023-02-13T14:37:31.119Z,2.47
2023-02-13T14:40:30.985Z,2.10
2023-02-13T14:43:07.594Z,2.73
2023-02-13T14:45:47.083Z,2.07
2023-02-13T14:48:17.203Z,2.50
2023-02-13T14:50:48.238Z,1.80
2023-02-13T14:53:22.868Z,2.63
2023-02-13T14:55:57.925Z,1.43
2023-02-13T14:58:29.870Z,2.27
2023-02-13T15:01:04.346Z,2.73
2023-02-13T15:03:39.342Z,2.22
2023-02-13T15:06:15.709Z,1.75
2023-02-13T15:08:49.921Z,2.50
2023-02-13T15:11:36.741Z,2.47
2023-02-13T15:14:31.293Z,2.80
2023-02-13T15:17:05.811Z,2.23
2023-02-13T15:19:40.260Z,3.60
2023-02-13T15:22:09.130Z,3.03
2023-02-13T15:24:45.935Z,2.78
2023-02-13T15:27:20.821Z,3.67
2023-02-13T15:29:57.226Z,2.83
2023-02-13T15:32:30.470Z,3.53
2023-02-13T15:35:00.631Z,3.13
2023-02-13T15:37:31.038Z,3.63
2023-02-13T15:40:16.629Z,3.20
2023-02-13T15:42:45.030Z,3.67
2023-02-13T15:45:18.911Z,3.30
2023-02-13T15:47:48.457Z,3.03
2023-02-13T15:50:23.261Z,4.87
2023-02-13T15:52:52.751Z,3.63
2023-02-13T15:55:23.473Z,3.43
2023-02-13T15:57:54.734Z,3.77
2023-02-13T16:00:26.598Z,3.30
2023-02-13T16:02:57.884Z,3.23
2023-02-13T16:05:40.045Z,3.60
2023-02-13T16:08:30.652Z,3.60
2023-02-13T16:11:24.943Z,3.30
2023-02-13T16:14:04.051Z,2.57
2023-02-13T16:16:37.604Z,3.03
2023-02-13T16:19:06.249Z,2.70
2023-02-13T16:21:36.246Z,3.07
2023-02-13T16:24:07.583Z,2.77
2023-02-13T16:26:39.273Z,3.13
2023-02-13T16:29:12.162Z,3.20
2023-02-13T16:31:41.744Z,3.13
2023-02-13T16:34:27.198Z,2.83
2023-02-13T16:36:58.535Z,2.93
2023-02-13T16:39:30.150Z,3.17
2023-02-13T16:41:59.796Z,4.30
2023-02-13T16:44:30.787Z,3.63
2023-02-13T16:47:02.051Z,3.83
2023-02-13T16:49:32.608Z,3.63
2023-02-13T16:52:16.914Z,5.30
2023-02-13T16:54:51.998Z,5.43
2023-02-13T16:57:27.413Z,6.23
2023-02-13T17:00:00.057Z,4.90
2023-02-13T17:02:29.949Z,6.10
2023-02-13T17:05:15.763Z,6.10
2023-02-13T17:07:48.187Z,5.23
2023-02-13T17:10:21.813Z,5.33
2023-02-13T17:12:51.399Z,4.63
2023-02-13T17:15:22.001Z,4.43
2023-02-13T17:17:51.693Z,3.93
2023-02-13T17:20:21.960Z,5.17
2023-02-13T17:22:55.864Z,4.40
2023-02-13T17:25:26.532Z,4.10
2023-02-13T17:27:57.047Z,4.60
2023-02-13T17:30:27.199Z,3.60
2023-02-13T17:32:59.791Z,4.10
2023-02-13T17:35:28.241Z,3.90
2023-02-13T17:37:58.368Z,3.70
2023-02-13T17:40:29.717Z,3.73
2023-02-13T17:42:59.379Z,3.83
2023-02-13T17:45:29.489Z,4.27
2023-02-13T17:47:58.236Z,4.17
2023-02-13T17:50:27.950Z,4.17
2023-02-13T17:52:58.682Z,4.20
2023-02-13T17:55:28.831Z,4.67
2023-02-13T17:57:58.508Z,4.53
2023-02-13T18:00:29.433Z,4.17
2023-02-13T18:02:59.266Z,4.70
2023-02-13T18:05:28.462Z,5.30
2023-02-13T18:07:58.438Z,5.40
2023-02-13T18:10:28.551Z,4.80
2023-02-13T18:13:03.942Z,5.80
2023-02-13T18:15:32.740Z,6.47
2023-02-13T18:18:01.918Z,5.43
2023-02-13T18:20:30.199Z,6.03
2023-02-13T18:23:00.492Z,6.10
2023-02-13T18:25:29.182Z,4.83
2023-02-13T18:27:57.748Z,5.50
2023-02-13T18:30:26.242Z,5.43
2023-02-13T18:32:56.346Z,6.43
2023-02-13T18:35:24.821Z,6.10
2023-02-13T18:37:53.580Z,5.13
2023-02-13T18:40:23.172Z,5.23
2023-02-13T18:42:52.600Z,6.03
2023-02-13T18:45:20.918Z,5.67
2023-02-13T18:47:49.535Z,4.97
2023-02-13T18:50:17.849Z,6.33
2023-02-13T18:52:46.750Z,5.07
2023-02-13T18:55:14.975Z,5.77
2023-02-13T18:57:45.563Z,5.53
2023-02-13T19:00:14.913Z,5.70
2023-02-13T19:02:43.572Z,5.63
2023-02-13T19:05:11.970Z,5.10
2023-02-13T19:07:40.712Z,5.73
2023-02-13T19:10:09.861Z,5.63
2023-02-13T19:12:38.492Z,6.07
2023-02-13T19:15:09.072Z,5.83
2023-02-13T19:17:39.576Z,5.77
2023-02-13T19:20:09.414Z,5.43
2023-02-13T19:22:37.970Z,6.37
2023-02-13T19:25:06.635Z,5.10
2023-02-13T19:27:38.166Z,5.67
2023-02-13T19:30:09.704Z,5.33
2023-02-13T19:32:38.307Z,6.00
2023-02-13T19:35:07.330Z,5.97
2023-02-13T19:37:43.432Z,6.27
2023-02-13T19:40:13.853Z,6.20
2023-02-13T19:42:42.355Z,6.40
2023-02-13T19:45:12.581Z,6.50
2023-02-13T19:47:41.364Z,6.50
2023-02-13T19:50:10.143Z,6.03
2023-02-13T19:52:38.962Z,6.50
2023-02-13T19:55:07.826Z,5.77
2023-02-13T19:57:36.426Z,5.17
2023-02-13T20:00:05.617Z,5.30
2023-02-13T20:02:37.336Z,5.47
2023-02-13T20:05:08.523Z,5.00
2023-02-13T20:07:37.015Z,5.20
2023-02-13T20:10:06.707Z,4.87
2023-02-13T20:12:35.216Z,4.77
2023-02-13T20:15:03.542Z,5.07
2023-02-13T20:17:32.425Z,4.87
2023-02-13T20:20:02.234Z,4.40
2023-02-13T20:22:30.944Z,4.63
2023-02-13T20:24:59.134Z,4.70
2023-02-13T20:27:27.608Z,5.03
2023-02-13T20:30:06.296Z,4.53
2023-02-13T20:32:36.394Z,4.97
2023-02-13T20:35:07.362Z,4.73
2023-02-13T20:37:36.710Z,4.60
2023-02-13T20:40:05.657Z,5.33
2023-02-13T20:42:35.006Z,4.57
2023-02-13T20:45:03.370Z,5.07
2023-02-13T20:47:32.553Z,4.90
2023-02-13T20:50:00.902Z,4.20
2023-02-13T20:52:30.758Z,4.13
2023-02-13T20:55:01.450Z,4.90
2023-02-13T20:57:29.981Z,4.47
2023-02-13T20:59:58.202Z,4.83
2023-02-13T21:02:27.045Z,4.97
2023-02-13T21:04:56.509Z,4.73
2023-02-13T21:07:25.009Z,4.23
2023-02-13T21:09:54.590Z,4.33
2023-02-13T21:12:23.157Z,4.60
2023-02-13T21:14:51.810Z,4.83
2023-02-13T21:17:20.371Z,4.43
2023-02-13T21:19:48.660Z,4.70
2023-02-13T21:22:17.192Z,4.60
2023-02-13T21:24:45.548Z,4.50
2023-02-13T21:27:15.427Z,4.97
2023-02-13T21:29:43.867Z,4.07
2023-02-13T21:32:12.584Z,4.27
2023-02-13T21:34:40.819Z,4.77
2023-02-13T21:37:09.395Z,4.20
2023-02-13T21:39:37.610Z,4.20
2023-02-13T21:42:06.287Z,5.00
2023-02-13T21:44:36.134Z,4.50
2023-02-13T21:47:07.020Z,4.57
2023-02-13T21:49:35.919Z,4.67
2023-02-13T21:52:04.878Z,5.00
2023-02-13T21:54:33.034Z,4.40
2023-02-13T21:57:01.481Z,4.73
2023-02-13T21:59:30.080Z,5.73
2023-02-13T22:02:01.769Z,5.13
2023-02-13T22:04:30.216Z,4.73
2023-02-13T22:06:58.795Z,4.30
2023-02-13T22:09:27.698Z,4.50
2023-02-13T22:11:56.236Z,4.53
2023-02-13T22:14:24.516Z,4.80
2023-02-13T22:16:53.836Z,5.00
2023-02-13T22:19:23.856Z,5.10
2023-02-13T22:21:52.363Z,4.50
2023-02-13T22:24:20.532Z,5.13
2023-02-13T22:26:49.194Z,4.57
2023-02-13T22:29:21.597Z,4.27
2023-02-13T22:31:50.165Z,4.60
2023-02-13T22:34:18.523Z,5.10
2023-02-13T22:36:48.802Z,4.50
2023-02-13T22:39:17.064Z,6.40
2023-02-13T22:41:45.954Z,5.37
2023-02-13T22:44:14.305Z,4.57
2023-02-13T22:46:44.603Z,4.77
2023-02-13T22:49:12.914Z,4.90
2023-02-13T22:51:41.399Z,5.47
2023-02-13T22:54:11.785Z,5.67
2023-02-13T22:56:40.197Z,5.17
2023-02-13T22:59:08.342Z,5.33
2023-02-13T23:01:37.756Z,5.37
2023-02-13T23:04:06.119Z,4.40
2023-02-13T23:06:34.539Z,5.07
2023-02-13T23:09:02.689Z,5.73
2023-02-13T23:11:49.811Z,5.70
2023-02-13T23:14:18.039Z,5.57
2023-02-13T23:17:03.975Z,6.50
2023-02-13T23:19:32.713Z,5.87
2023-02-13T23:22:01.578Z,6.00
2023-02-13T23:24:30.602Z,5.43
2023-02-13T23:27:01.074Z,5.03
2023-02-13T23:29:29.479Z,6.20
2023-02-13T23:31:58.094Z,5.00
2023-02-13T23:34:26.383Z,5.60
2023-02-13T23:36:54.876Z,4.60
2023-02-13T23:39:24.263Z,5.73
2023-02-13T23:41:52.788Z,5.77
2023-02-13T23:44:22.516Z,5.33
2023-02-13T23:46:50.978Z,6.07
2023-02-13T23:49:20.503Z,6.03
2023-02-13T23:51:49.103Z,4.97
2023-02-13T23:54:18.840Z,5.13
2023-02-13T23:56:47.432Z,5.53
2023-02-13T23:59:17.693Z,5.87
